createdAt,value
2022-09-12T00:01:16.465Z,10.40
2022-09-12T00:03:19.705Z,10.40
2022-09-12T00:05:23.510Z,10.30
2022-09-12T00:09:30.502Z,10.20
2022-09-12T00:11:36.077Z,10.20
2022-09-12T00:13:42.732Z,10.20
2022-09-12T00:17:49.710Z,10.10
2022-09-12T00:19:53.146Z,10.10
2022-09-12T00:21:57.312Z,10.10
2022-09-12T00:24:00.495Z,10.10
2022-09-12T00:26:06.608Z,10.10
2022-09-12T00:28:09.666Z,10.10
2022-09-12T00:30:14.720Z,10.10
2022-09-12T00:34:21.603Z,10.20
2022-09-12T00:36:26.440Z,10.20
2022-09-12T00:38:29.908Z,10.30
2022-09-12T00:40:33.128Z,10.30
2022-09-12T00:42:36.353Z,10.30
2022-09-12T00:44:49.831Z,10.20
2022-09-12T00:46:58.826Z,10.20
2022-09-12T00:49:06.617Z,10.20
2022-09-12T00:51:10.535Z,10.20
2022-09-12T00:57:24.873Z,10.20
2022-09-12T00:59:32.412Z,10.20
2022-09-12T01:01:35.854Z,10.20
2022-09-12T01:03:40.427Z,10.10
2022-09-12T01:05:48.717Z,10.10
2022-09-12T01:07:53.532Z,10.10
2022-09-12T01:10:00.037Z,10.10
2022-09-12T01:12:04.116Z,10.10
2022-09-12T01:16:12.150Z,10.00
2022-09-12T01:18:25.132Z,10.00
2022-09-12T01:20:46.140Z,10.00
2022-09-12T01:23:12.472Z,10.00
2022-09-12T01:25:25.782Z,10.00
2022-09-12T01:27:41.793Z,9.90
2022-09-12T01:32:15.960Z,10.00
2022-09-12T01:34:26.440Z,10.00
2022-09-12T01:36:42.999Z,10.10
2022-09-12T01:41:02.545Z,10.20
2022-09-12T01:43:12.260Z,10.30
2022-09-12T01:45:22.387Z,10.20
2022-09-12T01:49:41.302Z,10.30
2022-09-12T01:51:50.144Z,10.30
2022-09-12T01:53:58.777Z,10.30
2022-09-12T01:56:07.430Z,10.30
2022-09-12T01:58:15.736Z,10.30
2022-09-12T02:02:28.888Z,10.20
2022-09-12T02:04:36.995Z,10.30
2022-09-12T02:06:44.917Z,10.30
2022-09-12T02:08:51.725Z,10.20
2022-09-12T02:10:58.052Z,10.10
2022-09-12T02:13:07.092Z,10.00
2022-09-12T02:15:12.240Z,9.90
2022-09-12T02:17:17.742Z,9.80
2022-09-12T02:19:25.745Z,9.70
2022-09-12T02:21:32.961Z,9.70
2022-09-12T02:23:40.993Z,9.60
2022-09-12T02:25:47.926Z,9.60
2022-09-12T02:27:55.272Z,9.60
2022-09-12T02:32:08.245Z,9.50
2022-09-12T02:34:23.307Z,9.50
2022-09-12T02:36:37.848Z,9.40
2022-09-12T02:38:46.673Z,9.40
2022-09-12T02:40:49.879Z,9.40
2022-09-12T02:42:53.416Z,9.40
2022-09-12T02:44:58.188Z,9.40
2022-09-12T02:47:06.044Z,9.40
2022-09-12T02:51:14.004Z,9.40
2022-09-12T02:53:19.663Z,9.50
2022-09-12T02:55:24.765Z,9.60
2022-09-12T02:57:27.925Z,9.60
2022-09-12T02:59:31.155Z,9.60
2022-09-12T03:01:54.830Z,9.70
2022-09-12T03:04:24.005Z,9.70
2022-09-12T03:06:39.086Z,9.90
2022-09-12T03:09:00.415Z,10.00
2022-09-12T03:11:39.944Z,10.10
2022-09-12T03:13:55.409Z,10.20
2022-09-12T03:16:10.170Z,10.40
2022-09-12T03:18:28.210Z,10.50
2022-09-12T03:20:44.506Z,10.50
2022-09-12T03:22:54.994Z,10.60
2022-09-12T03:25:07.742Z,10.60
2022-09-12T03:27:16.895Z,10.60
2022-09-12T03:29:21.669Z,10.60
2022-09-12T03:31:24.947Z,10.70
2022-09-12T03:33:28.556Z,10.80
2022-09-12T03:39:38.676Z,10.90
2022-09-12T03:41:43.266Z,10.90
2022-09-12T03:50:00.085Z,10.90
2022-09-12T03:54:07.896Z,11.00
2022-09-12T03:56:13.407Z,11.00
2022-09-12T03:58:18.226Z,11.10
2022-09-12T04:02:24.975Z,11.10
2022-09-12T04:04:28.479Z,11.10
2022-09-12T04:06:31.804Z,11.10
2022-09-12T04:08:35.301Z,11.10
2022-09-12T04:12:42.132Z,10.80
2022-09-12T04:14:46.868Z,11.00
2022-09-12T04:20:57.009Z,10.90
2022-09-12T04:25:04.909Z,10.90
2022-09-12T04:27:08.370Z,10.90
2022-09-12T04:31:20.971Z,10.90
2022-09-12T04:33:24.100Z,10.90
2022-09-12T04:37:30.929Z,10.90
2022-09-12T04:39:33.998Z,10.80
2022-09-12T04:41:38.942Z,10.80
2022-09-12T04:43:42.209Z,10.80
2022-09-12T04:45:45.513Z,10.80
2022-09-12T04:47:50.406Z,11.00
2022-09-12T04:49:54.043Z,11.10
2022-09-12T04:51:57.299Z,11.10
2022-09-12T04:54:02.779Z,11.10
2022-09-12T04:58:10.344Z,10.90
2022-09-12T05:00:15.095Z,10.90
2022-09-12T05:02:18.668Z,10.80
2022-09-12T05:06:28.791Z,10.70
2022-09-12T05:08:32.017Z,10.70
2022-09-12T05:12:39.538Z,10.50
2022-09-12T05:14:42.802Z,10.50
2022-09-12T05:16:49.243Z,10.50
2022-09-12T05:25:06.007Z,10.50
2022-09-12T05:27:09.246Z,10.60
2022-09-12T05:29:13.224Z,10.60
2022-09-12T05:31:18.993Z,10.70
2022-09-12T05:33:25.088Z,10.70
2022-09-12T05:35:28.672Z,10.70
2022-09-12T05:45:51.773Z,11.70
2022-09-12T05:47:55.276Z,11.80
2022-09-12T05:49:59.793Z,12.20
2022-09-12T05:56:14.432Z,12.70
2022-09-12T06:00:21.648Z,12.80
2022-09-12T06:02:24.839Z,12.90
2022-09-12T06:04:28.354Z,13.20
2022-09-12T06:06:32.974Z,13.50
2022-09-12T06:10:43.651Z,14.00
2022-09-12T06:12:47.662Z,14.00
2022-09-12T06:14:50.789Z,14.00
2022-09-12T06:16:54.666Z,14.10
2022-09-12T06:18:59.410Z,14.10
2022-09-12T06:21:04.664Z,14.30
2022-09-12T06:23:11.550Z,14.60
2022-09-12T06:25:15.279Z,15.00
2022-09-12T06:27:20.327Z,15.40
2022-09-12T06:29:24.069Z,15.90
2022-09-12T06:31:29.554Z,16.30
2022-09-12T06:33:33.755Z,16.50
2022-09-12T06:35:38.300Z,16.80
2022-09-12T06:37:41.821Z,16.80
2022-09-12T06:39:45.101Z,16.90
2022-09-12T06:41:49.516Z,16.90
2022-09-12T06:43:54.887Z,16.90
2022-09-12T06:45:58.534Z,17.40
2022-09-12T06:48:01.665Z,17.80
2022-09-12T06:50:05.714Z,18.00
2022-09-12T06:52:09.331Z,18.30
2022-09-12T06:54:15.513Z,18.50
2022-09-12T06:56:22.156Z,19.00
2022-09-12T06:58:25.864Z,19.50
2022-09-12T07:00:30.508Z,19.70
2022-09-12T07:02:33.690Z,20.40
2022-09-12T07:04:37.326Z,21.00
2022-09-12T07:06:41.889Z,21.50
2022-09-12T07:08:45.907Z,21.20
2022-09-12T07:10:51.560Z,21.30
2022-09-12T07:12:54.728Z,22.00
2022-09-12T07:14:57.915Z,22.40
2022-09-12T07:17:02.561Z,22.90
2022-09-12T07:19:08.187Z,23.60
2022-09-12T07:21:13.518Z,24.80
2022-09-12T07:23:16.706Z,24.70
2022-09-12T07:25:20.105Z,24.50
2022-09-12T07:27:23.388Z,25.40
2022-09-12T07:31:46.455Z,26.20
2022-09-12T07:33:54.560Z,27.30
2022-09-12T07:36:03.583Z,27.70
2022-09-12T07:38:06.922Z,28.10
2022-09-12T07:40:10.769Z,28.70
2022-09-12T07:42:14.789Z,29.40
2022-09-12T07:44:18.015Z,31.10
2022-09-12T07:46:22.420Z,31.40
2022-09-12T07:48:26.479Z,31.20
2022-09-12T07:50:33.773Z,30.00
2022-09-12T07:52:36.908Z,29.90
2022-09-12T07:54:40.075Z,29.50
2022-09-12T07:56:43.239Z,29.50
2022-09-12T07:58:46.760Z,29.40
2022-09-12T08:00:49.853Z,30.10
2022-09-12T08:02:54.099Z,30.80
2022-09-12T08:04:57.328Z,30.90
2022-09-12T08:07:01.838Z,31.50
2022-09-12T08:09:08.006Z,33.10
2022-09-12T08:11:13.643Z,33.20
2022-09-12T08:13:16.741Z,34.40
2022-09-12T08:15:20.755Z,33.90
2022-09-12T08:19:27.526Z,33.60
2022-09-12T08:21:32.488Z,33.80
2022-09-12T08:23:37.068Z,34.70
2022-09-12T08:25:40.381Z,34.90
2022-09-12T08:27:44.128Z,33.80
2022-09-12T08:29:47.345Z,32.80
2022-09-12T08:31:53.994Z,33.20
2022-09-12T08:34:00.935Z,32.60
2022-09-12T08:36:06.440Z,30.90
2022-09-12T08:38:09.724Z,29.70
2022-09-12T08:40:19.063Z,30.00
2022-09-12T08:42:35.348Z,28.80
2022-09-12T08:44:56.349Z,28.00
2022-09-12T08:47:23.150Z,27.20
2022-09-12T08:49:30.376Z,27.20
2022-09-12T08:51:36.533Z,26.70
2022-09-12T08:53:40.334Z,26.40
2022-09-12T08:55:47.061Z,26.40
2022-09-12T08:57:50.501Z,26.00
2022-09-12T08:59:54.307Z,26.00
2022-09-12T09:01:59.873Z,26.10
2022-09-12T09:04:29.026Z,26.10
2022-09-12T09:06:58.444Z,25.90
2022-09-12T09:09:07.061Z,25.80
2022-09-12T09:11:31.771Z,25.20
2022-09-12T09:14:05.415Z,25.30
2022-09-12T09:16:15.639Z,25.30
2022-09-12T09:18:23.875Z,25.50
2022-09-12T09:20:33.454Z,25.40
2022-09-12T09:22:42.573Z,25.50
2022-09-12T09:24:53.951Z,25.50
2022-09-12T09:27:02.820Z,25.40
2022-09-12T09:29:13.029Z,25.10
2022-09-12T09:31:17.237Z,24.60
2022-09-12T09:33:24.109Z,24.90
2022-09-12T09:35:39.667Z,24.90
2022-09-12T09:37:45.025Z,25.20
2022-09-12T09:39:58.684Z,25.70
2022-09-12T09:42:25.299Z,26.20
2022-09-12T09:44:30.331Z,26.80
2022-09-12T09:46:34.292Z,27.00
2022-09-12T09:48:41.627Z,26.80
2022-09-12T09:50:45.420Z,27.00
2022-09-12T09:52:50.457Z,26.70
2022-09-12T09:55:02.857Z,26.80
2022-09-12T09:57:40.449Z,26.60
2022-09-12T09:59:43.815Z,27.00
2022-09-12T10:01:49.302Z,27.20
2022-09-12T10:03:54.126Z,27.00
2022-09-12T10:06:00.548Z,28.10
2022-09-12T10:10:18.486Z,32.70
2022-09-12T10:12:29.307Z,33.30
2022-09-12T10:16:52.706Z,35.30
2022-09-12T10:18:57.453Z,35.30
2022-09-12T10:21:01.699Z,35.00
2022-09-12T10:23:30.584Z,34.80
2022-09-12T10:25:33.839Z,33.70
2022-09-12T10:27:38.813Z,32.20
2022-09-12T10:29:48.443Z,32.00
2022-09-12T10:31:54.293Z,32.20
2022-09-12T10:33:59.707Z,32.50
2022-09-12T10:36:03.821Z,32.60
2022-09-12T10:38:11.972Z,33.20
2022-09-12T10:40:25.622Z,33.40
2022-09-12T10:44:55.607Z,35.00
2022-09-12T10:47:00.208Z,34.80
2022-09-12T10:49:31.337Z,34.50
2022-09-12T10:51:34.433Z,32.40
2022-09-12T10:53:42.604Z,31.10
2022-09-12T10:56:08.172Z,30.20
2022-09-12T10:58:29.690Z,29.80
2022-09-12T11:00:41.525Z,31.80
2022-09-12T11:02:55.965Z,32.20
2022-09-12T11:05:06.816Z,31.20
2022-09-12T11:07:35.382Z,29.70
2022-09-12T11:09:43.564Z,28.60
2022-09-12T11:12:14.286Z,27.90
2022-09-12T11:14:36.090Z,27.00
2022-09-12T11:16:48.342Z,26.40
2022-09-12T11:21:31.385Z,29.40
2022-09-12T11:23:56.006Z,30.10
2022-09-12T11:26:05.872Z,32.00
2022-09-12T11:28:29.693Z,32.70
2022-09-12T11:33:00.110Z,34.20
2022-09-12T11:35:17.731Z,33.60
2022-09-12T11:37:36.969Z,32.00
2022-09-12T11:39:41.498Z,29.80
2022-09-12T11:41:48.543Z,29.00
2022-09-12T11:43:56.784Z,27.80
2022-09-12T11:46:09.607Z,27.60
2022-09-12T11:48:19.678Z,27.70
2022-09-12T11:50:28.007Z,27.50
2022-09-12T11:52:38.276Z,27.10
2022-09-12T11:54:52.818Z,26.70
2022-09-12T11:57:05.123Z,27.70
2022-09-12T11:59:17.869Z,27.90
2022-09-12T12:01:28.027Z,27.20
2022-09-12T12:03:38.387Z,28.60
2022-09-12T12:05:47.552Z,28.80
2022-09-12T12:07:54.577Z,28.40
2022-09-12T12:09:58.067Z,27.40
2022-09-12T12:12:06.732Z,26.60
2022-09-12T12:14:17.192Z,26.30
2022-09-12T12:16:27.092Z,25.50
2022-09-12T12:18:32.398Z,25.30
2022-09-12T12:20:36.436Z,25.20
2022-09-12T12:22:51.887Z,25.10
2022-09-12T12:25:06.556Z,24.80
2022-09-12T12:27:26.441Z,24.80
2022-09-12T12:29:43.937Z,24.70
2022-09-12T12:32:38.285Z,24.50
2022-09-12T12:34:43.886Z,24.20
2022-09-12T12:36:50.282Z,24.40
2022-09-12T12:41:42.369Z,25.70
2022-09-12T12:47:56.424Z,27.60
2022-09-12T12:50:02.218Z,28.20
2022-09-12T12:56:40.345Z,30.40
2022-09-12T12:58:43.594Z,30.00
2022-09-12T13:00:49.031Z,28.80
2022-09-12T13:02:58.038Z,27.50
2022-09-12T13:05:04.478Z,26.90
2022-09-12T13:07:12.005Z,26.00
2022-09-12T13:09:24.144Z,25.70
2022-09-12T13:13:39.796Z,26.70
2022-09-12T13:15:51.637Z,27.20
2022-09-12T13:18:02.705Z,28.10
2022-09-12T13:20:28.239Z,27.90
2022-09-12T13:24:45.488Z,28.80
2022-09-12T13:48:35.325Z,27.70
2022-09-12T13:50:42.669Z,27.70
2022-09-12T13:52:50.795Z,27.90
2022-09-12T13:54:58.794Z,27.60
2022-09-12T13:57:02.006Z,27.40
2022-09-12T13:59:12.849Z,27.70
2022-09-12T14:01:17.734Z,27.40
2022-09-12T14:03:46.084Z,27.30
2022-09-12T14:05:58.788Z,27.40
2022-09-12T14:08:04.667Z,27.40
2022-09-12T14:10:08.726Z,27.10
2022-09-12T14:12:22.019Z,26.80
2022-09-12T14:14:32.378Z,26.10
2022-09-12T14:16:40.948Z,26.10
2022-09-12T14:18:45.518Z,26.10
2022-09-12T14:20:52.153Z,26.10
2022-09-12T14:22:55.513Z,26.10
2022-09-12T14:25:00.037Z,26.10
2022-09-12T14:27:03.424Z,26.00
2022-09-12T14:29:07.724Z,26.00
2022-09-12T14:31:24.592Z,25.30
2022-09-12T14:33:28.024Z,25.10
2022-09-12T14:35:32.563Z,25.00
2022-09-12T14:37:37.263Z,25.00
2022-09-12T14:39:44.114Z,25.00
2022-09-12T14:41:47.607Z,24.90
2022-09-12T14:43:54.520Z,24.60
2022-09-12T14:46:00.912Z,24.50
2022-09-12T14:48:04.348Z,24.40
2022-09-12T14:50:17.427Z,24.50
2022-09-12T14:52:28.748Z,24.40
2022-09-12T14:54:44.500Z,24.30
2022-09-12T14:56:56.357Z,24.20
2022-09-12T14:59:31.007Z,24.20
2022-09-12T15:01:34.518Z,24.20
2022-09-12T15:03:51.919Z,24.20
2022-09-12T15:05:55.412Z,23.90
2022-09-12T15:08:02.487Z,24.00
2022-09-12T15:10:14.823Z,23.70
2022-09-12T15:12:18.120Z,23.60
2022-09-12T15:14:21.279Z,23.50
2022-09-12T15:16:24.488Z,23.50
2022-09-12T15:18:30.108Z,23.40
2022-09-12T15:20:33.505Z,23.40
2022-09-12T15:22:37.636Z,23.20
2022-09-12T15:24:41.106Z,23.30
2022-09-12T15:26:46.025Z,23.00
2022-09-12T15:28:49.683Z,23.00
2022-09-12T15:30:55.876Z,22.80
2022-09-12T15:33:00.110Z,22.70
2022-09-12T15:35:03.828Z,22.60
2022-09-12T15:37:10.572Z,22.30
2022-09-12T15:39:13.938Z,22.10
2022-09-12T15:41:18.942Z,21.90
2022-09-12T15:43:26.182Z,21.80
2022-09-12T15:45:32.021Z,21.60
2022-09-12T15:47:35.140Z,21.60
2022-09-12T15:49:38.426Z,21.60
2022-09-12T15:51:41.582Z,21.50
2022-09-12T15:53:45.760Z,21.30
2022-09-12T15:55:48.918Z,21.10
2022-09-12T15:57:52.329Z,20.90
2022-09-12T15:59:56.812Z,20.60
2022-09-12T16:02:00.351Z,20.60
2022-09-12T16:04:04.382Z,20.40
2022-09-12T16:06:09.333Z,20.20
2022-09-12T16:08:12.517Z,20.00
2022-09-12T16:10:17.547Z,19.80
2022-09-12T16:12:21.034Z,19.70
2022-09-12T16:14:24.276Z,19.40
2022-09-12T16:18:32.223Z,19.20
2022-09-12T16:20:35.394Z,18.90
2022-09-12T16:22:38.787Z,18.70
2022-09-12T16:24:42.070Z,18.50
2022-09-12T16:26:45.261Z,18.40
2022-09-12T16:28:48.846Z,18.30
2022-09-12T16:30:56.653Z,18.20
2022-09-12T16:33:01.533Z,18.20
2022-09-12T16:35:05.127Z,18.10
2022-09-12T16:39:12.054Z,17.80
2022-09-12T16:45:22.673Z,17.50
2022-09-12T16:47:25.840Z,17.40
2022-09-12T16:49:30.487Z,17.40
2022-09-12T16:51:35.954Z,17.20
2022-09-12T16:53:40.137Z,17.10
2022-09-12T16:55:51.253Z,17.10
2022-09-12T16:57:54.887Z,16.90
2022-09-12T16:59:57.919Z,16.90
2022-09-12T17:02:01.147Z,16.80
2022-09-12T17:04:04.477Z,16.60
2022-09-12T17:06:11.169Z,16.50
2022-09-12T17:08:14.333Z,16.50
2022-09-12T17:10:18.201Z,16.50
2022-09-12T17:14:25.646Z,16.30
2022-09-12T17:16:30.248Z,16.20
2022-09-12T17:20:40.481Z,16.20
2022-09-12T17:22:45.041Z,16.10
2022-09-12T17:24:48.157Z,15.90
2022-09-12T17:26:51.836Z,16.00
2022-09-12T17:28:55.218Z,15.90
2022-09-12T17:30:59.400Z,15.70
2022-09-12T17:33:05.657Z,15.70
2022-09-12T17:35:10.986Z,15.60
2022-09-12T17:37:14.363Z,15.50
2022-09-12T17:39:19.137Z,15.50
2022-09-12T17:44:38.537Z,15.50
2022-09-12T17:46:41.928Z,15.30
2022-09-12T17:48:45.221Z,15.20
2022-09-12T17:50:48.722Z,15.10
2022-09-12T17:52:51.959Z,15.10
2022-09-12T17:54:56.885Z,15.10
2022-09-12T17:57:00.175Z,15.10
2022-09-12T17:59:03.754Z,15.10
2022-09-12T18:01:26.255Z,15.00
2022-09-12T18:03:29.502Z,15.00
2022-09-12T18:05:32.639Z,14.90
2022-09-12T18:07:38.159Z,14.90
2022-09-12T18:09:44.267Z,14.80
2022-09-12T18:11:49.973Z,14.80
2022-09-12T18:13:53.358Z,14.80
2022-09-12T18:15:56.561Z,14.70
2022-09-12T18:18:01.113Z,14.70
2022-09-12T18:20:04.467Z,14.70
2022-09-12T18:22:07.890Z,14.70
2022-09-12T18:24:11.696Z,14.70
2022-09-12T18:26:15.310Z,14.80
2022-09-12T18:28:19.836Z,14.90
2022-09-12T18:30:23.584Z,14.90
2022-09-12T18:32:26.723Z,14.80
2022-09-12T18:34:29.761Z,14.90
2022-09-12T18:36:33.346Z,14.80
2022-09-12T18:38:36.922Z,14.80
2022-09-12T18:40:40.248Z,14.70
2022-09-12T18:42:43.417Z,14.70
2022-09-12T18:44:48.264Z,14.80
2022-09-12T18:46:51.758Z,14.80
2022-09-12T18:51:06.264Z,14.80
2022-09-12T18:55:12.996Z,14.90
2022-09-12T18:57:16.073Z,14.90
2022-09-12T18:59:19.569Z,15.00
2022-09-12T19:01:25.733Z,15.00
2022-09-12T19:03:29.197Z,15.00
2022-09-12T19:05:33.613Z,14.90
2022-09-12T19:07:36.819Z,14.90
2022-09-12T19:09:43.778Z,15.00
2022-09-12T19:11:50.270Z,15.10
2022-09-12T19:13:55.133Z,15.10
2022-09-12T19:15:58.554Z,15.00
2022-09-12T19:18:03.164Z,15.00
2022-09-12T19:20:06.945Z,15.10
2022-09-12T19:22:10.100Z,15.20
2022-09-12T19:24:14.452Z,15.20
2022-09-12T19:26:18.741Z,15.20
2022-09-12T19:28:22.029Z,15.20
2022-09-12T19:30:25.270Z,15.20
2022-09-12T19:32:28.545Z,15.20
2022-09-12T19:34:33.856Z,15.20
2022-09-12T19:36:46.270Z,15.10
2022-09-12T19:38:53.926Z,15.10
2022-09-12T19:40:58.239Z,15.00
2022-09-12T19:43:01.714Z,15.00
2022-09-12T19:45:05.652Z,15.00
2022-09-12T19:47:10.020Z,14.90
2022-09-12T19:49:13.838Z,14.80
2022-09-12T19:51:19.689Z,14.80
2022-09-12T19:53:22.873Z,14.70
2022-09-12T19:55:26.165Z,14.70
2022-09-12T19:57:29.444Z,14.60
2022-09-12T19:59:32.561Z,14.60
2022-09-12T20:01:37.160Z,14.50
2022-09-12T20:03:41.357Z,14.40
2022-09-12T20:05:44.517Z,14.30
2022-09-12T20:07:49.014Z,14.30
2022-09-12T20:09:52.293Z,14.20
2022-09-12T20:11:55.718Z,14.10
2022-09-12T20:14:02.415Z,14.00
2022-09-12T20:16:10.317Z,14.00
2022-09-12T20:18:13.474Z,13.90
2022-09-12T20:20:16.805Z,13.80
2022-09-12T20:22:19.916Z,13.80
2022-09-12T20:24:28.388Z,13.70
2022-09-12T20:26:32.015Z,13.70
2022-09-12T20:28:35.449Z,13.60
2022-09-12T20:30:38.706Z,13.60
2022-09-12T20:32:42.304Z,13.50
2022-09-12T20:34:45.853Z,13.40
2022-09-12T20:36:49.569Z,13.40
2022-09-12T20:38:56.550Z,13.40
2022-09-12T20:41:03.451Z,13.30
2022-09-12T20:43:06.669Z,13.30
2022-09-12T20:45:10.708Z,13.30
2022-09-12T20:47:13.995Z,13.20
2022-09-12T20:49:17.357Z,13.20
2022-09-12T20:51:26.627Z,13.10
2022-09-12T20:53:34.822Z,13.10
2022-09-12T20:55:38.832Z,13.10
2022-09-12T20:57:43.475Z,13.10
2022-09-12T20:59:46.765Z,13.10
2022-09-12T21:01:50.144Z,13.10
2022-09-12T21:03:53.809Z,13.00
2022-09-12T21:05:57.019Z,13.00
2022-09-12T21:08:01.893Z,12.90
2022-09-12T21:10:05.746Z,12.90
2022-09-12T21:12:08.986Z,12.80
2022-09-12T21:14:13.602Z,12.80
2022-09-12T21:16:19.144Z,12.70
2022-09-12T21:20:26.145Z,12.80
2022-09-12T21:22:29.637Z,12.80
2022-09-12T21:24:32.820Z,12.80
2022-09-12T21:26:36.107Z,12.70
2022-09-12T21:28:42.137Z,12.70
2022-09-12T21:30:49.171Z,12.60
2022-09-12T21:32:52.561Z,12.60
2022-09-12T21:34:55.845Z,12.60
2022-09-12T21:36:59.340Z,12.50
2022-09-12T21:39:02.502Z,12.50
2022-09-12T21:41:07.688Z,12.50
2022-09-12T21:43:12.924Z,12.50
2022-09-12T21:45:16.777Z,12.40
2022-09-12T21:47:21.551Z,12.40
2022-09-12T21:49:25.484Z,12.30
2022-09-12T21:51:28.703Z,12.30
2022-09-12T21:53:32.287Z,12.30
2022-09-12T21:55:35.474Z,12.30
2022-09-12T21:57:38.676Z,12.30
2022-09-12T21:59:41.910Z,12.20
2022-09-12T22:01:45.199Z,12.20
2022-09-12T22:03:50.328Z,12.10
2022-09-12T22:05:57.346Z,12.10
2022-09-12T22:08:00.956Z,12.00
2022-09-12T22:10:04.424Z,12.00
2022-09-12T22:12:07.945Z,11.90
2022-09-12T22:14:11.234Z,11.90
2022-09-12T22:16:14.450Z,11.90
2022-09-12T22:18:17.672Z,11.90
2022-09-12T22:20:22.335Z,11.90
2022-09-12T22:22:43.004Z,12.00
2022-09-12T22:24:46.238Z,12.00
2022-09-12T22:26:49.659Z,12.00
2022-09-12T22:28:53.313Z,12.00
2022-09-12T22:30:56.933Z,12.00
2022-09-12T22:33:00.252Z,12.00
2022-09-12T22:35:03.906Z,12.00
2022-09-12T22:37:08.624Z,11.90
2022-09-12T22:39:11.877Z,11.90
2022-09-12T22:41:15.184Z,11.90
2022-09-12T22:43:18.744Z,11.90
2022-09-12T22:45:22.137Z,11.90
2022-09-12T22:47:25.482Z,11.90
2022-09-12T22:49:28.827Z,11.90
2022-09-12T22:51:32.857Z,11.90
2022-09-12T22:53:37.651Z,11.90
2022-09-12T22:55:41.145Z,11.90
2022-09-12T22:57:44.405Z,11.80
2022-09-12T22:59:47.825Z,11.80
2022-09-12T23:01:52.672Z,11.90
2022-09-12T23:03:56.101Z,11.80
2022-09-12T23:05:59.888Z,11.90
2022-09-12T23:08:03.559Z,12.00
2022-09-12T23:10:09.616Z,12.00
2022-09-12T23:12:12.800Z,12.00
2022-09-12T23:14:16.012Z,12.10
2022-09-12T23:16:21.089Z,12.10
2022-09-12T23:18:24.309Z,12.10
2022-09-12T23:20:27.913Z,12.20
2022-09-12T23:22:31.346Z,12.20
2022-09-12T23:24:34.574Z,12.20
2022-09-12T23:26:39.194Z,12.20
2022-09-12T23:28:43.835Z,12.10
2022-09-12T23:30:47.004Z,12.10
2022-09-12T23:32:50.719Z,12.00
2022-09-12T23:34:54.154Z,12.00
2022-09-12T23:36:57.543Z,11.90
2022-09-12T23:39:00.943Z,11.90
2022-09-12T23:41:04.793Z,11.80
2022-09-12T23:43:09.477Z,11.80
2022-09-12T23:45:12.823Z,11.70
2022-09-12T23:47:17.129Z,11.60
2022-09-12T23:49:20.365Z,11.60
2022-09-12T23:51:23.609Z,11.60
2022-09-12T23:53:27.228Z,11.50
2022-09-12T23:55:30.481Z,11.50
2022-09-12T23:57:33.664Z,11.50
2022-09-12T23:59:38.243Z,11.50
